createdAt,value
2022-11-13T00:02:42.749Z,100.00
2022-11-13T00:05:33.475Z,100.00
2022-11-13T00:08:24.032Z,100.00
2022-11-13T00:11:15.309Z,100.00
2022-11-13T00:14:05.586Z,100.00
2022-11-13T00:16:56.361Z,100.00
2022-11-13T00:19:46.102Z,100.00
2022-11-13T00:22:36.204Z,100.00
2022-11-13T00:25:26.923Z,100.00
2022-11-13T00:28:17.613Z,100.00
2022-11-13T00:31:07.866Z,100.00
2022-11-13T00:34:25.939Z,100.00
2022-11-13T00:37:08.919Z,100.00
2022-11-13T00:39:59.877Z,100.00
2022-11-13T00:42:50.536Z,100.00
2022-11-13T00:45:41.057Z,100.00
2022-11-13T00:48:31.269Z,100.00
2022-11-13T00:51:21.702Z,100.00
2022-11-13T00:54:12.028Z,100.00
2022-11-13T00:57:02.532Z,100.00
2022-11-13T00:59:53.123Z,100.00
2022-11-13T01:02:43.514Z,100.00
2022-11-13T01:05:33.977Z,100.00
2022-11-13T01:08:24.085Z,100.00
2022-11-13T01:11:15.070Z,100.00
2022-11-13T01:14:05.415Z,100.00
2022-11-13T01:16:55.864Z,100.00
2022-11-13T01:19:45.910Z,100.00
2022-11-13T01:22:36.156Z,100.00
2022-11-13T01:25:26.560Z,100.00
2022-11-13T01:28:17.231Z,100.00
2022-11-13T01:31:09.317Z,100.00
2022-11-13T01:33:57.649Z,100.00
2022-11-13T01:36:47.838Z,100.00
2022-11-13T01:39:38.781Z,100.00
2022-11-13T01:42:29.063Z,100.00
2022-11-13T01:46:05.752Z,100.00
2022-11-13T01:49:06.057Z,100.00
2022-11-13T01:51:57.267Z,100.00
2022-11-13T01:54:50.116Z,100.00
2022-11-13T01:57:40.328Z,100.00
2022-11-13T02:00:30.688Z,100.00
2022-11-13T02:03:21.028Z,100.00
2022-11-13T02:06:11.348Z,100.00
2022-11-13T02:09:01.649Z,100.00
2022-11-13T02:11:51.929Z,100.00
2022-11-13T02:14:43.487Z,100.00
2022-11-13T02:17:35.654Z,100.00
2022-11-13T02:20:28.838Z,100.00
2022-11-13T02:23:22.516Z,100.00
2022-11-13T02:26:12.626Z,100.00
2022-11-13T02:29:02.605Z,100.00
2022-11-13T02:31:53.008Z,100.00
2022-11-13T02:34:42.933Z,100.00
2022-11-13T02:37:33.430Z,100.00
2022-11-13T02:40:23.919Z,100.00
2022-11-13T02:43:14.131Z,100.00
2022-11-13T02:46:04.772Z,100.00
2022-11-13T02:48:54.975Z,100.00
2022-11-13T02:51:44.996Z,100.00
2022-11-13T02:54:35.321Z,100.00
2022-11-13T02:57:25.644Z,100.00
2022-11-13T03:00:17.432Z,100.00
2022-11-13T03:03:07.930Z,100.00
2022-11-13T03:05:57.909Z,100.00
2022-11-13T03:08:48.203Z,100.00
2022-11-13T03:11:38.508Z,100.00
2022-11-13T03:14:28.727Z,100.00
2022-11-13T03:17:19.010Z,100.00
2022-11-13T03:20:10.702Z,100.00
2022-11-13T03:23:00.738Z,100.00
2022-11-13T03:25:51.118Z,100.00
2022-11-13T03:28:41.493Z,100.00
2022-11-13T03:31:31.507Z,100.00
2022-11-13T03:34:21.437Z,100.00
2022-11-13T03:37:11.808Z,100.00
2022-11-13T03:40:02.158Z,100.00
2022-11-13T03:42:52.535Z,100.00
2022-11-13T03:45:43.080Z,100.00
2022-11-13T03:48:33.542Z,100.00
2022-11-13T03:51:23.809Z,100.00
2022-11-13T03:54:13.815Z,100.00
2022-11-13T03:57:04.070Z,100.00
2022-11-13T03:59:54.498Z,100.00
2022-11-13T04:02:44.903Z,100.00
2022-11-13T04:05:35.205Z,100.00
2022-11-13T04:08:25.726Z,100.00
2022-11-13T04:11:16.358Z,100.00
2022-11-13T04:14:06.473Z,100.00
2022-11-13T04:16:56.892Z,100.00
2022-11-13T04:19:47.125Z,100.00
2022-11-13T04:22:37.194Z,100.00
2022-11-13T04:25:27.593Z,100.00
2022-11-13T04:28:18.164Z,100.00
2022-11-13T04:31:08.451Z,100.00
2022-11-13T04:33:58.704Z,100.00
2022-11-13T04:36:48.779Z,100.00
2022-11-13T04:39:38.930Z,100.00
2022-11-13T04:42:46.753Z,100.00
2022-11-13T04:45:37.711Z,100.00
2022-11-13T04:48:28.631Z,100.00
2022-11-13T04:51:19.138Z,100.00
2022-11-13T04:54:09.751Z,100.00
2022-11-13T04:56:59.949Z,100.00
2022-11-13T04:59:50.423Z,100.00
2022-11-13T05:02:41.027Z,100.00
2022-11-13T05:05:31.185Z,100.00
2022-11-13T05:08:20.933Z,100.00
2022-11-13T05:11:10.973Z,100.00
2022-11-13T05:14:03.701Z,100.00
2022-11-13T05:16:54.308Z,100.00
2022-11-13T05:19:44.982Z,100.00
2022-11-13T05:22:35.001Z,100.00
2022-11-13T05:25:25.428Z,100.00
2022-11-13T05:28:16.366Z,100.00
2022-11-13T05:31:09.197Z,100.00
2022-11-13T05:34:05.322Z,100.00
2022-11-13T05:36:56.556Z,100.00
2022-11-13T05:39:47.539Z,100.00
2022-11-13T05:42:38.038Z,100.00
2022-11-13T05:45:29.200Z,100.00
2022-11-13T05:48:19.717Z,100.00
2022-11-13T05:51:11.486Z,100.00
2022-11-13T05:54:01.593Z,100.00
2022-11-13T05:56:51.979Z,100.00
2022-11-13T05:59:42.689Z,100.00
2022-11-13T06:02:33.168Z,100.00
2022-11-13T06:05:23.496Z,100.00
2022-11-13T06:08:13.433Z,100.00
2022-11-13T06:11:04.148Z,100.00
2022-11-13T06:13:54.982Z,100.00
2022-11-13T06:16:44.836Z,100.00
2022-11-13T06:19:34.977Z,100.00
2022-11-13T06:22:25.107Z,100.00
2022-11-13T06:25:15.280Z,100.00
2022-11-13T06:28:05.276Z,100.00
2022-11-13T06:30:55.400Z,100.00
2022-11-13T06:33:45.855Z,100.00
2022-11-13T06:36:37.283Z,100.00
2022-11-13T06:39:27.571Z,100.00
2022-11-13T06:42:17.329Z,100.00
2022-11-13T06:45:09.118Z,100.00
2022-11-13T06:47:59.740Z,100.00
2022-11-13T06:50:50.432Z,100.00
2022-11-13T06:53:41.043Z,100.00
2022-11-13T06:56:31.533Z,100.00
2022-11-13T06:59:22.126Z,100.00
2022-11-13T07:02:13.747Z,100.00
2022-11-13T07:05:04.026Z,100.00
2022-11-13T07:07:54.827Z,100.00
2022-11-13T07:56:07.526Z,100.00
2022-11-13T07:58:58.628Z,100.00
2022-11-13T08:01:49.036Z,100.00
2022-11-13T08:04:39.804Z,100.00
2022-11-13T08:07:30.517Z,100.00
2022-11-13T08:10:21.284Z,100.00
2022-11-13T08:13:12.297Z,100.00
2022-11-13T08:16:03.585Z,100.00
2022-11-13T08:18:54.682Z,100.00
2022-11-13T08:21:45.136Z,100.00
2022-11-13T08:24:35.553Z,100.00
2022-11-13T08:27:25.926Z,100.00
2022-11-13T08:30:17.597Z,100.00
2022-11-13T08:33:08.010Z,100.00
2022-11-13T08:35:58.829Z,100.00
2022-11-13T08:38:50.572Z,100.00
2022-11-13T08:41:40.908Z,100.00
2022-11-13T08:44:31.031Z,100.00
2022-11-13T08:47:23.421Z,100.00
2022-11-13T08:50:17.576Z,100.00
2022-11-13T08:53:07.702Z,100.00
2022-11-13T08:56:00.859Z,100.00
2022-11-13T08:58:51.198Z,100.00
2022-11-13T09:01:41.237Z,100.00
2022-11-13T09:04:31.728Z,100.00
2022-11-13T09:07:27.012Z,100.00
2022-11-13T09:10:17.935Z,100.00
2022-11-13T09:13:09.936Z,100.00
2022-11-13T09:16:02.396Z,100.00
2022-11-13T09:18:53.562Z,100.00
2022-11-13T09:21:43.808Z,100.00
2022-11-13T09:24:34.098Z,100.00
2022-11-13T09:27:23.956Z,100.00
2022-11-13T09:30:15.952Z,100.00
2022-11-13T09:33:06.864Z,100.00
2022-11-13T09:35:56.929Z,100.00
2022-11-13T09:38:47.101Z,100.00
2022-11-13T09:41:39.081Z,100.00
2022-11-13T09:44:39.381Z,100.00
2022-11-13T09:47:31.623Z,100.00
2022-11-13T09:50:23.723Z,100.00
2022-11-13T09:53:14.586Z,100.00
2022-11-13T09:56:09.980Z,100.00
2022-11-13T09:59:16.942Z,100.00
2022-11-13T10:02:15.522Z,100.00
2022-11-13T10:05:08.911Z,100.00
2022-11-13T10:08:02.064Z,100.00
2022-11-13T10:10:55.859Z,100.00
2022-11-13T10:13:49.212Z,100.00
2022-11-13T10:16:40.904Z,100.00
2022-11-13T10:19:35.969Z,100.00
2022-11-13T10:22:34.143Z,100.00
2022-11-13T10:25:26.749Z,100.00
2022-11-13T10:31:28.863Z,100.00
2022-11-13T10:34:19.606Z,100.00
2022-11-13T10:37:21.899Z,100.00
2022-11-13T10:40:12.390Z,100.00
2022-11-13T10:43:15.944Z,100.00
2022-11-13T10:46:06.944Z,100.00
2022-11-13T10:48:57.842Z,100.00
2022-11-13T10:51:56.497Z,100.00
2022-11-13T10:54:46.888Z,100.00
2022-11-13T10:57:37.147Z,100.00
2022-11-13T11:00:32.693Z,100.00
2022-11-13T11:03:23.699Z,100.00
2022-11-13T11:06:13.763Z,100.00
2022-11-13T11:09:24.274Z,100.00
2022-11-13T11:12:23.115Z,100.00
2022-11-13T11:15:23.517Z,100.00
2022-11-13T11:18:23.645Z,99.82
2022-11-13T11:21:15.448Z,98.87
2022-11-13T11:24:06.919Z,97.99
2022-11-13T11:27:00.845Z,97.44
2022-11-13T11:29:54.875Z,97.74
2022-11-13T11:32:46.746Z,96.53
2022-11-13T11:35:42.008Z,95.86
2022-11-13T11:38:34.848Z,95.09
2022-11-13T11:41:33.797Z,95.06
2022-11-13T11:44:26.667Z,94.85
2022-11-13T11:47:18.635Z,91.60
2022-11-13T11:50:12.100Z,89.64
2022-11-13T11:53:07.598Z,88.36
2022-11-13T11:56:17.038Z,87.60
2022-11-13T11:59:13.614Z,86.36
2022-11-13T12:02:35.023Z,85.25
2022-11-13T12:05:27.386Z,83.70
2022-11-13T12:08:23.803Z,82.06
2022-11-13T12:11:19.005Z,80.72
2022-11-13T12:14:14.523Z,79.89
2022-11-13T12:17:17.761Z,80.06
2022-11-13T12:20:23.186Z,80.82
2022-11-13T12:23:21.450Z,81.70
2022-11-13T12:26:14.042Z,82.66
2022-11-13T12:29:08.134Z,82.05
2022-11-13T12:32:05.168Z,82.06
2022-11-13T12:34:57.062Z,81.35
2022-11-13T12:37:51.659Z,81.21
2022-11-13T12:40:44.856Z,81.02
2022-11-13T12:43:44.499Z,81.38
2022-11-13T12:46:39.293Z,81.54
2022-11-13T12:49:34.372Z,80.89
2022-11-13T12:52:24.861Z,80.13
2022-11-13T12:55:29.307Z,80.17
2022-11-13T12:58:23.312Z,80.23
2022-11-13T13:01:20.254Z,80.11
2022-11-13T13:04:46.234Z,80.05
2022-11-13T13:08:04.935Z,79.26
2022-11-13T13:11:01.755Z,79.28
2022-11-13T13:13:55.796Z,79.00
2022-11-13T13:16:46.412Z,79.27
2022-11-13T13:19:37.271Z,79.34
2022-11-13T13:22:32.045Z,79.75
2022-11-13T13:25:30.356Z,80.08
2022-11-13T13:28:24.550Z,80.53
2022-11-13T13:31:23.654Z,81.05
2022-11-13T13:34:23.811Z,81.31
2022-11-13T13:37:19.605Z,81.56
2022-11-13T13:40:19.471Z,82.12
2022-11-13T13:43:17.691Z,82.63
2022-11-13T13:46:12.367Z,83.37
2022-11-13T13:49:06.386Z,84.02
2022-11-13T13:51:57.100Z,84.98
2022-11-13T13:54:47.741Z,86.22
2022-11-13T13:57:41.805Z,87.47
2022-11-13T14:00:32.141Z,88.33
2022-11-13T14:03:25.270Z,89.11
2022-11-13T14:06:22.047Z,90.10
2022-11-13T14:09:12.830Z,91.20
2022-11-13T14:12:09.250Z,92.58
2022-11-13T14:15:00.346Z,94.01
2022-11-13T14:17:50.397Z,94.69
2022-11-13T14:20:46.792Z,95.21
2022-11-13T14:23:38.974Z,95.71
2022-11-13T14:26:29.327Z,96.50
2022-11-13T14:29:34.868Z,97.49
2022-11-13T14:32:26.468Z,98.12
2022-11-13T14:35:21.810Z,98.86
2022-11-13T14:38:20.687Z,99.42
2022-11-13T14:41:21.325Z,99.97
2022-11-13T14:44:13.253Z,100.00
2022-11-13T14:47:02.515Z,100.00
2022-11-13T14:49:52.761Z,100.00
2022-11-13T14:52:42.963Z,100.00
2022-11-13T14:55:34.865Z,100.00
2022-11-13T14:58:34.175Z,100.00
2022-11-13T15:01:25.766Z,100.00
2022-11-13T15:04:16.130Z,100.00
2022-11-13T15:07:19.788Z,100.00
2022-11-13T15:10:12.623Z,100.00
2022-11-13T15:13:02.962Z,100.00
2022-11-13T15:15:53.200Z,100.00
2022-11-13T15:18:43.605Z,100.00
2022-11-13T15:21:33.754Z,100.00
2022-11-13T15:24:24.212Z,100.00
2022-11-13T15:27:16.500Z,100.00
2022-11-13T15:30:07.704Z,100.00
2022-11-13T15:32:59.625Z,100.00
2022-11-13T15:35:50.031Z,100.00
2022-11-13T15:38:40.695Z,100.00
2022-11-13T15:41:33.166Z,100.00
2022-11-13T15:44:23.537Z,100.00
2022-11-13T15:47:21.529Z,100.00
2022-11-13T15:50:14.553Z,100.00
2022-11-13T15:53:05.761Z,100.00
2022-11-13T15:55:56.527Z,100.00
2022-11-13T15:58:46.913Z,100.00
2022-11-13T16:01:37.737Z,100.00
2022-11-13T16:04:50.486Z,100.00
2022-11-13T16:07:42.149Z,100.00
2022-11-13T16:10:32.752Z,100.00
2022-11-13T16:13:22.793Z,100.00
2022-11-13T16:16:13.703Z,100.00
2022-11-13T16:19:04.370Z,100.00
2022-11-13T16:21:55.704Z,100.00
2022-11-13T16:24:45.693Z,100.00
2022-11-13T16:27:36.578Z,100.00
2022-11-13T16:30:28.841Z,100.00
2022-11-13T16:33:19.162Z,100.00
2022-11-13T16:36:12.841Z,100.00
2022-11-13T16:39:03.840Z,100.00
2022-11-13T16:41:54.526Z,100.00
2022-11-13T16:44:45.569Z,100.00
2022-11-13T16:47:36.883Z,100.00
2022-11-13T16:50:29.868Z,100.00
2022-11-13T16:53:20.830Z,100.00
2022-11-13T16:56:17.117Z,100.00
2022-11-13T16:59:07.242Z,100.00
2022-11-13T17:02:00.548Z,100.00
2022-11-13T17:04:51.060Z,100.00
2022-11-13T17:07:41.239Z,100.00
2022-11-13T17:10:33.048Z,100.00
2022-11-13T17:13:23.894Z,100.00
2022-11-13T17:16:15.608Z,100.00
2022-11-13T17:19:07.212Z,100.00
2022-11-13T17:21:57.913Z,100.00
2022-11-13T17:24:49.298Z,100.00
2022-11-13T17:27:39.558Z,100.00
2022-11-13T17:30:29.649Z,100.00
2022-11-13T17:33:20.376Z,100.00
2022-11-13T17:36:12.062Z,100.00
2022-11-13T17:39:02.804Z,100.00
2022-11-13T17:41:54.780Z,100.00
2022-11-13T17:44:45.458Z,100.00
2022-11-13T17:47:38.110Z,100.00
2022-11-13T17:50:29.189Z,100.00
2022-11-13T17:53:19.812Z,100.00
2022-11-13T17:56:13.941Z,100.00
2022-11-13T17:59:05.217Z,100.00
2022-11-13T18:01:55.535Z,100.00
2022-11-13T18:04:45.709Z,100.00
2022-11-13T18:07:35.973Z,100.00
2022-11-13T18:10:25.901Z,100.00
2022-11-13T18:13:16.278Z,100.00
2022-11-13T18:16:11.097Z,100.00
2022-11-13T18:19:03.580Z,100.00
2022-11-13T18:21:54.417Z,100.00
2022-11-13T18:24:44.775Z,100.00
2022-11-13T18:27:35.313Z,100.00
2022-11-13T18:30:25.615Z,100.00
2022-11-13T18:33:16.088Z,100.00
2022-11-13T18:36:06.976Z,100.00
2022-11-13T18:38:57.455Z,100.00
2022-11-13T18:41:48.146Z,100.00
2022-11-13T18:44:38.493Z,100.00
2022-11-13T18:47:28.801Z,100.00
2022-11-13T18:50:20.029Z,100.00
2022-11-13T18:53:10.214Z,100.00
2022-11-13T18:56:03.504Z,100.00
2022-11-13T18:58:54.530Z,100.00
2022-11-13T19:01:44.869Z,100.00
2022-11-13T19:04:37.725Z,100.00
2022-11-13T19:07:28.275Z,100.00
2022-11-13T19:10:19.883Z,100.00
2022-11-13T19:13:09.806Z,100.00
2022-11-13T19:16:00.857Z,100.00
2022-11-13T19:18:55.220Z,100.00
2022-11-13T19:21:45.037Z,100.00
2022-11-13T19:24:35.942Z,100.00
2022-11-13T19:27:26.439Z,100.00
2022-11-13T19:30:17.037Z,100.00
2022-11-13T19:33:07.070Z,100.00
2022-11-13T19:35:57.707Z,100.00
2022-11-13T19:38:48.014Z,100.00
2022-11-13T19:41:38.348Z,100.00
2022-11-13T19:44:29.081Z,100.00
2022-11-13T19:47:19.391Z,100.00
2022-11-13T19:50:11.656Z,100.00
2022-11-13T19:53:01.847Z,100.00
2022-11-13T19:55:57.862Z,100.00
2022-11-13T19:58:48.357Z,100.00
2022-11-13T20:01:38.564Z,100.00
2022-11-13T20:04:29.037Z,100.00
2022-11-13T20:07:19.678Z,100.00
2022-11-13T20:10:11.664Z,100.00
2022-11-13T20:13:02.750Z,100.00
2022-11-13T20:15:57.208Z,100.00
2022-11-13T20:18:47.493Z,100.00
2022-11-13T20:21:37.633Z,100.00
2022-11-13T20:24:27.668Z,100.00
2022-11-13T20:27:17.792Z,100.00
2022-11-13T20:30:10.681Z,100.00
2022-11-13T20:33:00.946Z,100.00
2022-11-13T20:35:57.411Z,100.00
2022-11-13T20:38:52.165Z,100.00
2022-11-13T20:41:42.124Z,100.00
2022-11-13T20:44:34.454Z,100.00
2022-11-13T20:47:25.003Z,100.00
2022-11-13T20:50:16.308Z,100.00
2022-11-13T20:53:06.592Z,100.00
2022-11-13T20:55:57.387Z,100.00
2022-11-13T20:58:47.647Z,100.00
2022-11-13T21:01:38.262Z,100.00
2022-11-13T21:04:28.704Z,100.00
2022-11-13T21:07:18.876Z,100.00
2022-11-13T21:10:10.735Z,100.00
2022-11-13T21:13:01.042Z,100.00
2022-11-13T21:15:51.337Z,100.00
2022-11-13T21:18:42.065Z,100.00
2022-11-13T21:21:32.578Z,100.00
2022-11-13T21:24:23.955Z,100.00
2022-11-13T21:27:15.342Z,100.00
2022-11-13T21:30:05.862Z,100.00
2022-11-13T21:32:56.632Z,100.00
2022-11-13T21:35:47.367Z,100.00
2022-11-13T21:38:38.069Z,100.00
2022-11-13T21:41:28.987Z,100.00
2022-11-13T21:44:19.455Z,100.00
2022-11-13T21:47:10.088Z,100.00
2022-11-13T21:50:00.482Z,100.00
2022-11-13T21:52:51.210Z,100.00
2022-11-13T21:55:41.810Z,100.00
2022-11-13T21:58:35.927Z,100.00
2022-11-13T22:01:26.736Z,100.00
2022-11-13T22:04:16.723Z,100.00
2022-11-13T22:07:06.820Z,100.00
2022-11-13T22:09:57.638Z,100.00
2022-11-13T22:12:48.747Z,100.00
2022-11-13T22:15:38.869Z,100.00
2022-11-13T22:18:29.640Z,100.00
2022-11-13T22:21:20.418Z,100.00
2022-11-13T22:24:11.860Z,100.00
2022-11-13T22:27:02.533Z,100.00
2022-11-13T22:29:52.889Z,100.00
2022-11-13T22:32:43.732Z,100.00
2022-11-13T22:35:34.856Z,100.00
2022-11-13T22:38:25.422Z,100.00
2022-11-13T22:41:22.632Z,100.00
2022-11-13T22:44:15.675Z,100.00
2022-11-13T22:47:06.167Z,100.00
2022-11-13T22:49:57.051Z,100.00
2022-11-13T22:52:47.337Z,100.00
2022-11-13T22:55:38.397Z,100.00
2022-11-13T22:58:28.613Z,100.00
2022-11-13T23:01:21.188Z,100.00
2022-11-13T23:04:14.004Z,100.00
2022-11-13T23:07:05.760Z,100.00
2022-11-13T23:09:55.977Z,100.00
2022-11-13T23:12:46.515Z,100.00
2022-11-13T23:15:37.001Z,100.00
2022-11-13T23:18:27.784Z,100.00
2022-11-13T23:21:18.688Z,100.00
2022-11-13T23:24:11.427Z,100.00
2022-11-13T23:27:02.585Z,100.00
2022-11-13T23:29:54.128Z,100.00
2022-11-13T23:32:44.462Z,100.00
2022-11-13T23:35:34.579Z,100.00
2022-11-13T23:38:25.519Z,100.00
2022-11-13T23:41:15.733Z,100.00
2022-11-13T23:44:09.492Z,100.00
2022-11-13T23:47:00.691Z,100.00
2022-11-13T23:49:51.734Z,100.00
2022-11-13T23:52:42.534Z,100.00
2022-11-13T23:55:32.862Z,100.00
2022-11-13T23:58:23.550Z,100.00
